Time;durP1;ratioP1;P1;durP2;ratioP2;P2;SDS_P1;SDS_P2;PMS_P1;PMS_P2;Temp;Humidity;BMP_temperature;BMP_pressure;BME280_temperature;BME280_humidity;BME280_pressure;Samples;Min_cycle;Max_cycle;Signal;HPM_P1;HPM_P2
2022/11/20 00:00:51;;;;;;;13.17;9.90;;;0.70;99.90;;;;;;5025256;28;20284;-58
2022/11/20 00:03:17;;;;;;;12.27;8.90;;;0.70;99.90;;;;;;5029164;28;20309;-57
2022/11/20 00:05:44;;;;;;;12.33;9.87;;;0.70;99.90;;;;;;5021216;28;20224;-56
2022/11/20 00:08:09;;;;;;;11.43;8.77;;;0.70;99.90;;;;;;5031698;28;20555;-56
2022/11/20 00:10:39;;;;;;;12.40;9.17;;;0.70;99.90;;;;;;5036308;28;20205;-59
2022/11/20 00:13:05;;;;;;;12.33;8.63;;;0.70;99.90;;;;;;5030596;28;20204;-58
2022/11/20 00:15:31;;;;;;;12.77;9.53;;;0.70;99.90;;;;;;5022184;28;20567;-57
2022/11/20 00:17:56;;;;;;;13.83;10.00;;;0.70;99.90;;;;;;5023137;28;20565;-58
2022/11/20 00:20:22;;;;;;;13.40;9.30;;;0.70;99.90;;;;;;5025569;28;20605;-56
2022/11/20 00:22:48;;;;;;;13.63;9.53;;;0.70;99.90;;;;;;5025703;28;20256;-57
2022/11/20 00:25:14;;;;;;;10.63;8.03;;;0.70;99.90;;;;;;5021545;28;20290;-56
2022/11/20 00:27:39;;;;;;;11.77;9.57;;;0.70;99.90;;;;;;5023919;28;20869;-56
2022/11/20 00:30:06;;;;;;;12.00;8.63;;;0.70;99.90;;;;;;5027203;28;20254;-56
2022/11/20 00:32:31;;;;;;;11.27;8.37;;;0.70;99.90;;;;;;5029432;28;20228;-56
2022/11/20 00:34:57;;;;;;;13.10;9.43;;;0.60;99.90;;;;;;5017745;28;20199;-56
2022/11/20 00:37:22;;;;;;;10.30;8.77;;;0.70;99.90;;;;;;5019629;28;20319;-56
2022/11/20 00:39:47;;;;;;;11.70;8.97;;;0.70;99.90;;;;;;5026272;28;20211;-56
2022/11/20 00:42:13;;;;;;;15.23;8.97;;;0.60;99.90;;;;;;5029368;28;20235;-56
2022/11/20 00:44:39;;;;;;;12.33;9.13;;;0.70;99.90;;;;;;5019426;28;20614;-56
2022/11/20 00:47:04;;;;;;;11.23;9.27;;;0.70;99.90;;;;;;5017962;28;20246;-56
2022/11/20 00:49:30;;;;;;;12.73;9.30;;;0.70;99.90;;;;;;5024653;28;20212;-58
2022/11/20 00:51:55;;;;;;;13.17;8.93;;;0.60;99.90;;;;;;5024148;28;20725;-58
2022/11/20 00:54:21;;;;;;;13.17;9.43;;;0.70;99.90;;;;;;5025912;28;20213;-59
2022/11/20 00:56:46;;;;;;;12.60;9.07;;;0.70;99.90;;;;;;5029252;28;20222;-56
2022/11/20 00:59:12;;;;;;;13.10;9.40;;;0.70;99.90;;;;;;5034712;28;20258;-58
2022/11/20 01:01:38;;;;;;;11.73;8.83;;;0.60;99.90;;;;;;5019386;28;20297;-57
2022/11/20 01:04:03;;;;;;;12.57;8.93;;;0.60;99.90;;;;;;5026619;28;20208;-57
2022/11/20 01:06:34;;;;;;;11.43;8.80;;;0.60;99.90;;;;;;5029500;28;21004;-57
2022/11/20 01:09:09;;;;;;;12.27;9.30;;;0.60;99.90;;;;;;5023728;28;20205;-57
2022/11/20 01:11:38;;;;;;;15.57;9.00;;;0.60;99.90;;;;;;5029149;28;20224;-59
2022/11/20 01:14:07;;;;;;;11.70;9.27;;;0.50;99.90;;;;;;5028297;28;20211;-59
2022/11/20 01:16:35;;;;;;;10.37;8.37;;;0.50;99.90;;;;;;5026020;28;20283;-58
2022/11/20 01:19:04;;;;;;;10.93;8.87;;;0.50;99.90;;;;;;5024383;28;20582;-57
2022/11/20 01:21:33;;;;;;;11.80;8.80;;;0.60;99.90;;;;;;5027298;28;20247;-58
2022/11/20 01:23:59;;;;;;;13.90;9.10;;;0.60;99.90;;;;;;5025115;28;20195;-57
2022/11/20 01:26:27;;;;;;;12.60;9.83;;;0.60;99.90;;;;;;5023729;28;20204;-56
2022/11/20 01:28:54;;;;;;;12.63;9.37;;;0.60;99.90;;;;;;5024007;28;20214;-55
2022/11/20 01:31:29;;;;;;;13.07;9.60;;;0.60;99.90;;;;;;5025715;28;20224;-56
2022/11/20 01:33:56;;;;;;;8.13;7.07;;;0.60;99.90;;;;;;5020971;28;20201;-56
2022/11/20 01:36:24;;;;;;;9.67;8.67;;;0.60;99.90;;;;;;5028677;28;20232;-56
2022/11/20 01:38:54;;;;;;;11.07;8.23;;;0.60;99.90;;;;;;5027928;28;20340;-55
2022/11/20 01:44:05;;;;;;;10.43;9.33;;;0.60;99.90;;;;;;5026220;28;20352;-56
2022/11/20 01:46:39;;;;;;;12.00;8.53;;;0.60;99.90;;;;;;5023529;28;20220;-56
2022/11/20 01:49:19;;;;;;;10.70;8.40;;;0.60;99.90;;;;;;5024652;28;20210;-56
2022/11/20 01:51:51;;;;;;;12.97;9.50;;;0.50;99.90;;;;;;5028901;28;20262;-56
2022/11/20 01:54:23;;;;;;;12.47;9.87;;;0.50;99.90;;;;;;5024588;28;20304;-57
2022/11/20 01:56:51;;;;;;;13.27;10.07;;;0.50;99.90;;;;;;5021224;28;20212;-56
2022/11/20 01:59:19;;;;;;;13.60;11.47;;;0.50;99.90;;;;;;5024987;28;20694;-55
2022/11/20 02:01:44;;;;;;;12.60;9.30;;;0.60;99.90;;;;;;5023972;28;20204;-55
2022/11/20 02:04:10;;;;;;;16.07;10.70;;;0.70;99.90;;;;;;5026044;28;20214;-53
2022/11/20 02:06:49;;;;;;;13.63;10.37;;;0.60;99.90;;;;;;5026480;28;20595;-56
2022/11/20 02:09:15;;;;;;;11.90;9.63;;;0.60;99.90;;;;;;5020543;28;20679;-57
2022/11/20 02:11:41;;;;;;;12.17;9.10;;;0.50;99.90;;;;;;5028227;28;20315;-54
2022/11/20 02:14:09;;;;;;;13.20;10.63;;;0.50;99.90;;;;;;5020417;28;20767;-54
2022/11/20 02:16:39;;;;;;;14.70;10.97;;;0.50;99.90;;;;;;5026443;28;20293;-56
2022/11/20 02:19:11;;;;;;;11.70;9.40;;;0.50;99.90;;;;;;5026881;28;20211;-54
2022/11/20 02:21:46;;;;;;;14.30;9.93;;;0.50;99.90;;;;;;5023134;28;20759;-54
2022/11/20 02:24:17;;;;;;;11.90;10.57;;;0.50;99.90;;;;;;5027643;28;20463;-53
2022/11/20 02:26:59;;;;;;;19.43;10.43;;;0.60;99.90;;;;;;5023086;28;20259;-54
2022/11/20 02:29:35;;;;;;;14.73;10.97;;;0.50;99.90;;;;;;5026306;28;20200;-54
2022/11/20 02:32:02;;;;;;;12.47;9.50;;;0.50;99.90;;;;;;5026773;28;20226;-54
2022/11/20 02:34:28;;;;;;;18.33;12.00;;;0.50;99.90;;;;;;5024856;28;20287;-54
2022/11/20 02:36:55;;;;;;;14.73;10.43;;;0.40;99.90;;;;;;5024895;28;20214;-54
2022/11/20 02:39:24;;;;;;;13.80;9.77;;;0.40;99.90;;;;;;5026551;28;20229;-54
2022/11/20 02:41:52;;;;;;;13.67;11.47;;;0.30;99.90;;;;;;5025010;28;20210;-54
2022/11/20 02:44:18;;;;;;;16.07;10.37;;;0.30;99.90;;;;;;5026556;28;20255;-54
2022/11/20 02:46:44;;;;;;;19.13;10.70;;;0.30;99.90;;;;;;5024647;28;20197;-54
2022/11/20 02:49:10;;;;;;;14.47;10.30;;;0.30;99.90;;;;;;5026783;28;20201;-54
2022/11/20 02:51:35;;;;;;;14.60;10.50;;;0.30;99.90;;;;;;5026073;28;20207;-54
2022/11/20 02:54:01;;;;;;;15.63;12.37;;;0.30;99.90;;;;;;5023737;28;20694;-54
2022/11/20 02:56:27;;;;;;;22.00;11.17;;;0.30;99.90;;;;;;5026506;28;20199;-54
2022/11/20 02:58:54;;;;;;;12.60;10.93;;;0.30;99.90;;;;;;5006834;28;20225;-54
2022/11/20 03:01:19;;;;;;;11.73;9.40;;;0.30;99.90;;;;;;5013607;28;20199;-54
2022/11/20 03:03:48;;;;;;;16.90;11.50;;;0.30;99.90;;;;;;5014326;28;20205;-54
2022/11/20 03:06:15;;;;;;;20.63;12.07;;;0.30;99.90;;;;;;5011484;28;20209;-54
2022/11/20 03:08:45;;;;;;;14.90;12.37;;;0.30;99.90;;;;;;5015183;28;20292;-54
2022/11/20 03:11:10;;;;;;;14.27;10.60;;;0.30;99.90;;;;;;5019772;28;20231;-54
2022/11/20 03:13:36;;;;;;;20.63;13.23;;;0.30;99.90;;;;;;5019893;28;20197;-55
2022/11/20 03:16:07;;;;;;;15.50;11.50;;;0.30;99.90;;;;;;5017392;28;20628;-54
2022/11/20 03:18:33;;;;;;;16.37;12.23;;;0.30;99.90;;;;;;5019583;28;20209;-55
2022/11/20 03:20:59;;;;;;;18.00;11.57;;;0.30;99.90;;;;;;5019551;28;20257;-55
2022/11/20 03:23:25;;;;;;;15.40;11.77;;;0.30;99.90;;;;;;5019754;28;20447;-54
2022/11/20 03:25:51;;;;;;;14.57;11.40;;;0.30;99.90;;;;;;5023264;28;20222;-55
2022/11/20 03:28:16;;;;;;;16.43;11.67;;;0.40;99.90;;;;;;5015359;28;20664;-54
2022/11/20 03:30:42;;;;;;;17.07;10.57;;;0.40;99.90;;;;;;5017412;28;20201;-54
2022/11/20 03:33:07;;;;;;;19.27;13.20;;;0.30;99.90;;;;;;5010102;28;20218;-54
2022/11/20 03:35:33;;;;;;;15.90;11.20;;;0.30;99.90;;;;;;5009537;28;20206;-54
2022/11/20 03:37:58;;;;;;;14.63;11.80;;;0.30;99.90;;;;;;5007165;28;20226;-55
2022/11/20 03:40:24;;;;;;;15.70;11.87;;;0.30;99.90;;;;;;5008939;28;20252;-54
2022/11/20 03:42:49;;;;;;;13.17;10.83;;;0.30;99.90;;;;;;5009261;28;20348;-54
2022/11/20 03:45:17;;;;;;;14.80;12.27;;;0.30;99.90;;;;;;5008824;28;20207;-54
2022/11/20 03:47:43;;;;;;;16.70;10.63;;;0.30;99.90;;;;;;5015496;28;20298;-55
2022/11/20 03:50:12;;;;;;;14.93;10.77;;;0.30;99.90;;;;;;5007649;28;20215;-55
2022/11/20 03:52:38;;;;;;;15.50;11.33;;;0.30;99.90;;;;;;5009533;28;20515;-55
2022/11/20 03:55:04;;;;;;;20.27;12.13;;;0.20;99.90;;;;;;5009447;28;20252;-55
2022/11/20 03:57:29;;;;;;;15.50;11.97;;;0.30;99.90;;;;;;5017507;28;20300;-54
2022/11/20 03:59:55;;;;;;;16.97;11.97;;;0.30;99.90;;;;;;5028915;28;20733;-54
2022/11/20 04:02:21;;;;;;;13.80;11.17;;;0.30;99.90;;;;;;5028796;28;20197;-55
2022/11/20 04:04:46;;;;;;;16.10;12.20;;;0.30;99.90;;;;;;5027958;28;20226;-54
2022/11/20 04:07:11;;;;;;;16.60;12.37;;;0.20;99.90;;;;;;5028490;28;20291;-54
2022/11/20 04:09:37;;;;;;;14.97;11.47;;;0.20;99.90;;;;;;5027253;28;20206;-54
2022/11/20 04:12:02;;;;;;;16.30;13.37;;;0.20;99.90;;;;;;5028217;28;20311;-54
2022/11/20 04:14:28;;;;;;;17.27;11.13;;;0.10;99.90;;;;;;5031521;28;20202;-54
2022/11/20 04:16:53;;;;;;;18.73;12.30;;;0.10;99.90;;;;;;5024266;28;20210;-54
2022/11/20 04:19:19;;;;;;;15.40;12.03;;;0.10;99.90;;;;;;5026027;28;20228;-54
2022/11/20 04:21:44;;;;;;;13.37;11.20;;;0.10;99.90;;;;;;5028216;28;20647;-55
2022/11/20 04:24:10;;;;;;;14.40;11.23;;;0.10;99.90;;;;;;5028765;28;20213;-54
2022/11/20 04:26:36;;;;;;;15.63;11.50;;;0.00;99.90;;;;;;5028738;28;20963;-54
2022/11/20 04:29:02;;;;;;;15.73;11.23;;;0.10;99.90;;;;;;5028570;28;20213;-54
2022/11/20 04:31:29;;;;;;;16.00;11.77;;;0.10;99.90;;;;;;5026325;28;20284;-54
2022/11/20 04:33:55;;;;;;;17.10;12.47;;;0.20;99.90;;;;;;5027837;28;20195;-54
2022/11/20 04:36:26;;;;;;;12.73;10.13;;;0.20;99.90;;;;;;5028238;28;20207;-54
2022/11/20 04:38:53;;;;;;;16.93;12.07;;;0.20;99.90;;;;;;5027892;28;20284;-54
2022/11/20 04:41:22;;;;;;;16.17;10.97;;;0.20;99.90;;;;;;5025051;28;20203;-55
2022/11/20 04:43:50;;;;;;;14.83;11.40;;;0.30;99.90;;;;;;5037056;28;20255;-54
2022/11/20 04:46:16;;;;;;;14.57;12.57;;;0.30;99.90;;;;;;5030735;28;20753;-54
2022/11/20 04:48:42;;;;;;;15.40;11.97;;;0.40;99.90;;;;;;5037682;28;20214;-54
2022/11/20 04:51:07;;;;;;;16.03;11.67;;;0.40;99.90;;;;;;5037913;28;20218;-55
2022/11/20 04:53:33;;;;;;;17.60;12.63;;;0.40;99.90;;;;;;5035891;28;20240;-55
2022/11/20 04:56:16;;;;;;;17.40;12.10;;;0.50;99.90;;;;;;5038046;28;20251;-55
2022/11/20 04:58:42;;;;;;;15.97;11.67;;;0.40;99.90;;;;;;5035249;28;20222;-56
2022/11/20 05:01:20;;;;;;;15.37;12.10;;;0.50;99.90;;;;;;5037629;28;20746;-55
2022/11/20 05:03:46;;;;;;;15.47;10.70;;;0.40;99.90;;;;;;5037172;28;20210;-55
2022/11/20 05:06:15;;;;;;;15.80;11.60;;;0.40;99.90;;;;;;5036070;28;20814;-55
2022/11/20 05:08:40;;;;;;;14.70;11.47;;;0.40;99.90;;;;;;5028281;28;20317;-57
2022/11/20 05:11:09;;;;;;;14.87;11.63;;;0.40;99.90;;;;;;5037417;28;20303;-58
2022/11/20 05:13:35;;;;;;;15.37;11.30;;;0.40;99.90;;;;;;5034036;28;20625;-54
2022/11/20 05:16:03;;;;;;;17.20;12.03;;;0.40;99.90;;;;;;5040970;28;20198;-54
2022/11/20 05:18:28;;;;;;;17.10;12.67;;;0.50;99.90;;;;;;5031187;28;20192;-54
2022/11/20 05:20:58;;;;;;;15.13;12.30;;;0.40;99.90;;;;;;5036664;28;20200;-54
2022/11/20 05:23:24;;;;;;;16.53;12.13;;;0.40;99.90;;;;;;5037461;28;20208;-54
2022/11/20 05:25:54;;;;;;;15.80;11.17;;;0.40;99.90;;;;;;5037346;28;20300;-54
2022/11/20 05:28:20;;;;;;;14.20;10.53;;;0.40;99.90;;;;;;5034931;28;20199;-54
2022/11/20 05:30:46;;;;;;;14.03;11.00;;;0.40;99.90;;;;;;5037019;28;20288;-54
2022/11/20 05:33:11;;;;;;;15.20;10.30;;;0.40;99.90;;;;;;5036288;28;20684;-54
2022/11/20 05:35:36;;;;;;;14.67;11.03;;;0.30;99.90;;;;;;5039546;28;20230;-54
2022/11/20 05:38:02;;;;;;;13.73;11.43;;;0.40;99.90;;;;;;5034138;28;20676;-54
2022/11/20 05:40:27;;;;;;;18.80;11.87;;;0.30;99.90;;;;;;5036920;28;20232;-54
2022/11/20 05:42:53;;;;;;;14.10;11.17;;;0.30;99.90;;;;;;5035026;28;20221;-54
2022/11/20 05:45:18;;;;;;;15.40;11.90;;;0.30;99.90;;;;;;5036879;28;20205;-54
2022/11/20 05:47:44;;;;;;;14.67;11.20;;;0.30;99.90;;;;;;5036351;28;20251;-54
2022/11/20 05:50:09;;;;;;;13.23;11.07;;;0.30;99.90;;;;;;5036434;28;20204;-54
2022/11/20 05:52:35;;;;;;;15.90;11.50;;;0.40;99.90;;;;;;5036510;28;20571;-54
2022/11/20 05:55:00;;;;;;;18.00;11.27;;;0.40;99.90;;;;;;5036325;28;20203;-54
2022/11/20 05:57:26;;;;;;;15.83;11.33;;;0.40;99.90;;;;;;5034660;28;20221;-54
2022/11/20 05:59:52;;;;;;;14.73;11.47;;;0.50;99.90;;;;;;5036882;28;20210;-54
2022/11/20 06:02:17;;;;;;;14.27;11.20;;;0.50;99.90;;;;;;5036360;28;20232;-54
2022/11/20 06:04:43;;;;;;;16.67;12.23;;;0.60;99.90;;;;;;5035401;28;20803;-55
2022/11/20 06:07:09;;;;;;;14.53;11.60;;;0.50;99.90;;;;;;5027518;28;20229;-55
2022/11/20 06:09:35;;;;;;;13.67;10.70;;;0.60;99.90;;;;;;5021515;28;20201;-55
2022/11/20 06:12:01;;;;;;;17.13;11.90;;;0.60;99.90;;;;;;5026588;28;20213;-55
2022/11/20 06:14:26;;;;;;;20.23;12.13;;;0.60;99.90;;;;;;5026585;28;20202;-55
2022/11/20 06:16:53;;;;;;;14.20;11.37;;;0.60;99.90;;;;;;5025683;28;20228;-55
2022/11/20 06:19:19;;;;;;;14.13;10.70;;;0.60;99.90;;;;;;5035267;28;20194;-55
2022/11/20 06:21:44;;;;;;;14.60;10.90;;;0.60;99.90;;;;;;5026548;28;20577;-54
2022/11/20 06:24:10;;;;;;;14.83;10.97;;;0.60;99.90;;;;;;5023922;28;20693;-55
2022/11/20 06:26:36;;;;;;;18.00;12.70;;;0.60;99.90;;;;;;5025876;28;20231;-54
2022/11/20 06:29:01;;;;;;;15.27;11.23;;;0.60;99.90;;;;;;5025632;28;20517;-55
2022/11/20 06:31:27;;;;;;;13.50;10.37;;;0.60;99.90;;;;;;5025328;28;20215;-55
2022/11/20 06:33:53;;;;;;;16.33;11.93;;;0.70;99.90;;;;;;5025337;28;20260;-54
2022/11/20 06:36:21;;;;;;;17.17;11.13;;;0.60;99.90;;;;;;5024015;28;20928;-54
2022/11/20 06:38:46;;;;;;;16.77;11.20;;;0.70;99.90;;;;;;5029732;28;20557;-54
2022/11/20 06:41:15;;;;;;;15.53;11.37;;;0.70;99.90;;;;;;5023155;28;20417;-54
2022/11/20 06:43:41;;;;;;;14.47;10.63;;;0.70;99.90;;;;;;5025844;28;20287;-55
2022/11/20 06:46:07;;;;;;;14.50;11.23;;;0.80;99.90;;;;;;5026295;28;20311;-54
2022/11/20 06:48:32;;;;;;;16.77;12.30;;;0.80;99.90;;;;;;5023976;28;20209;-54
2022/11/20 06:50:58;;;;;;;16.50;12.43;;;0.80;99.90;;;;;;5025117;28;20764;-54
2022/11/20 06:53:24;;;;;;;15.17;11.47;;;0.80;99.90;;;;;;5025147;28;20212;-54
2022/11/20 06:55:51;;;;;;;14.57;11.77;;;0.80;99.90;;;;;;5025910;28;20206;-54
2022/11/20 06:58:17;;;;;;;12.60;10.53;;;0.80;99.90;;;;;;5023900;28;20246;-55
2022/11/20 07:00:42;;;;;;;14.60;11.43;;;0.80;99.90;;;;;;5021746;28;20199;-54
2022/11/20 07:03:10;;;;;;;13.90;11.00;;;0.80;99.90;;;;;;5025945;28;20285;-55
2022/11/20 07:05:36;;;;;;;17.80;12.03;;;0.80;99.90;;;;;;5025874;28;20216;-54
2022/11/20 07:08:03;;;;;;;20.80;12.90;;;0.80;99.90;;;;;;5025550;28;20680;-55
2022/11/20 07:10:28;;;;;;;15.77;11.80;;;0.80;99.90;;;;;;5023473;28;20203;-55
2022/11/20 07:12:54;;;;;;;18.77;11.87;;;0.90;99.90;;;;;;5025972;28;20226;-55
2022/11/20 07:15:22;;;;;;;17.40;13.00;;;0.90;99.90;;;;;;5026401;28;20226;-54
2022/11/20 07:17:47;;;;;;;16.73;12.10;;;0.90;99.90;;;;;;5021972;28;20651;-55
2022/11/20 07:20:13;;;;;;;15.00;11.37;;;1.00;99.90;;;;;;5025117;28;20195;-55
2022/11/20 07:22:39;;;;;;;16.37;10.83;;;1.00;99.90;;;;;;5023985;28;20201;-58
2022/11/20 07:25:05;;;;;;;14.53;11.53;;;1.00;99.90;;;;;;5025883;28;20232;-55
2022/11/20 07:27:31;;;;;;;15.37;12.23;;;1.00;99.90;;;;;;5025724;28;20733;-55
2022/11/20 07:29:56;;;;;;;15.13;10.77;;;1.10;99.90;;;;;;5025262;28;20578;-55
2022/11/20 07:32:22;;;;;;;14.90;11.07;;;1.10;99.90;;;;;;5026122;28;20209;-55
2022/11/20 07:34:47;;;;;;;15.30;11.70;;;1.00;99.90;;;;;;5023629;28;20201;-56
2022/11/20 07:37:14;;;;;;;14.23;10.27;;;1.00;99.90;;;;;;5024586;28;20203;-55
2022/11/20 07:39:39;;;;;;;15.57;11.90;;;1.00;99.90;;;;;;5024939;28;20231;-58
2022/11/20 07:42:06;;;;;;;16.33;12.27;;;1.00;99.90;;;;;;5025335;28;20211;-54
2022/11/20 07:44:32;;;;;;;16.00;12.10;;;1.00;99.90;;;;;;5024240;28;20203;-54
2022/11/20 07:46:58;;;;;;;15.47;11.43;;;1.00;99.90;;;;;;5023058;28;20207;-54
2022/11/20 07:49:23;;;;;;;15.90;11.73;;;1.00;99.90;;;;;;5025815;28;20222;-54
2022/11/20 07:51:55;;;;;;;14.43;11.47;;;1.10;99.90;;;;;;5024953;28;20252;-54
2022/11/20 07:54:21;;;;;;;16.37;11.43;;;1.10;99.90;;;;;;5025410;28;20584;-54
2022/11/20 07:56:47;;;;;;;19.13;12.73;;;1.10;99.90;;;;;;5027434;28;20201;-54
2022/11/20 07:59:13;;;;;;;15.03;11.83;;;1.10;99.90;;;;;;5027363;28;20218;-54
2022/11/20 08:01:39;;;;;;;17.17;11.63;;;1.10;99.90;;;;;;5028634;28;20579;-54
2022/11/20 08:04:04;;;;;;;15.07;11.30;;;1.10;99.90;;;;;;5028364;28;20203;-54
2022/11/20 08:06:30;;;;;;;18.10;12.70;;;1.10;99.90;;;;;;5028675;28;20213;-54
2022/11/20 08:08:56;;;;;;;16.43;11.90;;;1.10;99.90;;;;;;5027877;28;20323;-55
2022/11/20 08:14:11;;;;;;;17.40;12.60;;;1.20;99.90;;;;;;5026865;28;20631;-54
2022/11/20 08:16:37;;;;;;;10.93;9.00;;;1.20;99.90;;;;;;5026986;28;20201;-55
2022/11/20 08:19:02;;;;;;;18.57;12.93;;;1.20;99.90;;;;;;5027806;28;20630;-55
2022/11/20 08:21:28;;;;;;;16.60;11.97;;;1.10;99.90;;;;;;5028230;28;20217;-54
2022/11/20 08:23:53;;;;;;;17.47;12.40;;;1.10;99.90;;;;;;5027683;28;20773;-54
2022/11/20 08:26:20;;;;;;;18.33;12.13;;;1.10;99.90;;;;;;5028244;28;20202;-54
2022/11/20 08:28:45;;;;;;;17.67;12.03;;;1.10;99.90;;;;;;5031035;28;20217;-54
2022/11/20 08:31:11;;;;;;;15.80;11.57;;;1.10;99.90;;;;;;5038006;28;21114;-57
2022/11/20 08:33:36;;;;;;;17.50;12.10;;;1.20;99.90;;;;;;5038117;28;20223;-54
2022/11/20 08:36:03;;;;;;;17.07;12.13;;;1.20;99.90;;;;;;5037751;28;20665;-55
2022/11/20 08:38:29;;;;;;;16.43;12.07;;;1.10;99.90;;;;;;5037944;28;20252;-55
2022/11/20 08:43:43;;;;;;;15.90;11.33;;;1.10;99.90;;;;;;5038313;28;20208;-54
2022/11/20 08:46:08;;;;;;;17.30;12.80;;;1.10;99.90;;;;;;5036181;28;20567;-55
2022/11/20 08:48:34;;;;;;;17.13;11.87;;;1.20;99.90;;;;;;5037479;28;20194;-55
2022/11/20 08:50:59;;;;;;;16.77;13.37;;;1.30;99.90;;;;;;5037547;28;20191;-55
2022/11/20 08:53:26;;;;;;;15.77;13.17;;;1.30;99.90;;;;;;5038137;28;20711;-55
2022/11/20 08:55:51;;;;;;;18.00;12.07;;;1.50;99.90;;;;;;5037711;28;20217;-53
2022/11/20 08:58:17;;;;;;;17.00;11.63;;;1.60;99.90;;;;;;5036401;28;20227;-54
2022/11/20 09:00:43;;;;;;;14.73;11.47;;;1.60;99.90;;;;;;5035708;28;20228;-54
2022/11/20 09:03:08;;;;;;;18.53;12.40;;;1.50;99.90;;;;;;5037579;28;20622;-54
2022/11/20 09:05:33;;;;;;;14.27;11.27;;;1.50;99.90;;;;;;5036835;28;20208;-54
2022/11/20 09:07:59;;;;;;;15.47;11.83;;;1.50;99.90;;;;;;5035556;28;20207;-54
2022/11/20 09:10:28;;;;;;;21.23;12.17;;;1.50;99.90;;;;;;5035689;28;20328;-54
2022/11/20 09:12:55;;;;;;;19.50;13.13;;;1.40;99.90;;;;;;5035366;28;20211;-54
2022/11/20 09:15:21;;;;;;;19.13;12.63;;;1.30;99.90;;;;;;5037596;28;20232;-56
2022/11/20 09:17:53;;;;;;;15.33;11.20;;;1.30;99.90;;;;;;5036887;28;20205;-55
2022/11/20 09:20:18;;;;;;;16.93;12.37;;;1.40;99.90;;;;;;5039168;28;20191;-55
2022/11/20 09:22:44;;;;;;;16.30;11.10;;;1.40;99.90;;;;;;5036030;28;20972;-55
2022/11/20 09:25:22;;;;;;;18.80;12.33;;;1.50;99.90;;;;;;5035198;28;20195;-76
2022/11/20 09:27:47;;;;;;;17.07;12.20;;;1.50;99.90;;;;;;5035386;28;20202;-52
2022/11/20 09:30:14;;;;;;;19.50;14.00;;;1.40;99.90;;;;;;5032515;28;20216;-52
2022/11/20 09:32:40;;;;;;;17.23;12.17;;;1.50;99.90;;;;;;5024809;28;20700;-52
2022/11/20 09:35:06;;;;;;;15.33;12.07;;;1.60;99.90;;;;;;5026839;28;20207;-52
2022/11/20 09:37:32;;;;;;;17.80;12.63;;;1.70;99.90;;;;;;5027671;28;20695;-52
2022/11/20 09:39:58;;;;;;;14.67;11.67;;;1.80;99.90;;;;;;5027863;28;20227;-52
2022/11/20 09:42:50;;;;;;;15.33;12.17;;;1.70;99.90;;;;;;5024593;28;20210;-52
2022/11/20 09:45:56;;;;;;;19.27;12.13;;;1.60;99.90;;;;;;5009959;28;20239;-53
2022/11/20 09:48:50;;;;;;;17.33;11.70;;;1.70;99.90;;;;;;5024306;28;20224;-54
2022/11/20 09:51:36;;;;;;;17.03;12.47;;;1.90;99.90;;;;;;5027228;28;20276;-55
2022/11/20 09:54:09;;;;;;;16.50;11.10;;;2.00;99.90;;;;;;5026903;28;20222;-52
2022/11/20 09:56:39;;;;;;;19.47;13.17;;;2.20;99.90;;;;;;5028753;28;20218;-53
2022/11/20 09:59:07;;;;;;;11.80;9.30;;;2.30;99.90;;;;;;5029001;28;20206;-52
2022/11/20 10:01:36;;;;;;;15.00;10.17;;;2.40;99.90;;;;;;5036241;28;20573;-53
2022/11/20 10:04:04;;;;;;;16.87;12.10;;;2.40;99.90;;;;;;5035052;28;20253;-56
2022/11/20 10:06:44;;;;;;;14.47;10.97;;;2.40;99.90;;;;;;5036431;28;20201;-57
2022/11/20 10:09:12;;;;;;;14.10;10.57;;;2.30;99.90;;;;;;5037157;28;20205;-52
2022/11/20 10:12:00;;;;;;;16.70;11.77;;;2.30;99.90;;;;;;5034275;28;20264;-52
2022/11/20 10:14:25;;;;;;;15.40;10.77;;;2.20;99.90;;;;;;5031110;28;20785;-52
2022/11/20 10:17:15;;;;;;;14.83;10.83;;;2.20;99.90;;;;;;5034349;28;20202;-62
2022/11/20 10:20:07;;;;;;;20.30;11.73;;;2.30;99.90;;;;;;5030656;28;20206;-54
2022/11/20 10:22:51;;;;;;;13.60;10.77;;;2.30;99.90;;;;;;5036061;28;20213;-52
2022/11/20 10:25:40;;;;;;;13.87;10.93;;;2.40;99.90;;;;;;5035947;28;20637;-52
2022/11/20 10:28:21;;;;;;;12.27;10.10;;;2.40;99.90;;;;;;5014113;28;20251;-53
2022/11/20 10:31:04;;;;;;;14.03;11.13;;;2.30;99.90;;;;;;5029863;28;20197;-53
2022/11/20 10:33:43;;;;;;;11.23;9.93;;;2.40;99.90;;;;;;5035853;28;20202;-52
2022/11/20 10:36:23;;;;;;;15.13;10.23;;;2.50;99.90;;;;;;5027003;28;20202;-53
2022/11/20 10:39:00;;;;;;;14.57;9.90;;;2.50;99.90;;;;;;5035271;28;20289;-52
2022/11/20 10:41:31;;;;;;;12.43;10.80;;;2.60;99.90;;;;;;5035747;28;20202;-52
2022/11/20 10:45:00;;;;;;;17.23;10.93;;;2.60;99.90;;;;;;5035960;28;20203;-52
2022/11/20 10:47:05;;;;;;;17.43;11.83;;;2.50;99.90;;;;;;5033416;28;20221;-52
2022/11/20 10:49:32;;;;;;;15.23;10.17;;;2.60;99.90;;;;;;5035659;28;20226;-52
2022/11/20 10:52:10;;;;;;;14.57;10.03;;;2.70;99.90;;;;;;5035352;28;20217;-53
2022/11/20 10:54:40;;;;;;;13.90;10.73;;;2.80;99.90;;;;;;5033418;28;20206;-52
2022/11/20 10:57:36;;;;;;;13.17;10.43;;;2.80;99.90;;;;;;5033739;28;20233;-52
2022/11/20 11:00:06;;;;;;;14.70;10.30;;;2.80;99.90;;;;;;5035391;28;20648;-58
2022/11/20 11:02:46;;;;;;;14.63;10.83;;;3.00;99.90;;;;;;5035668;28;20221;-55
2022/11/20 11:05:17;;;;;;;13.53;9.83;;;3.10;99.90;;;;;;5035527;28;20209;-55
2022/11/20 11:07:45;;;;;;;16.43;10.10;;;3.20;99.90;;;;;;5035320;28;20259;-55
2022/11/20 11:10:41;;;;;;;14.73;10.47;;;3.40;99.90;;;;;;5033256;28;20202;-57
2022/11/20 11:13:18;;;;;;;13.90;11.03;;;3.40;99.90;;;;;;5030670;28;20587;-56
2022/11/20 11:15:43;;;;;;;13.23;9.73;;;3.30;99.90;;;;;;5023883;28;20210;-56
2022/11/20 11:18:10;;;;;;;12.60;9.90;;;3.50;99.90;;;;;;5030984;28;20203;-55
2022/11/20 11:20:36;;;;;;;9.93;8.77;;;3.50;99.90;;;;;;5035156;28;20337;-56
2022/11/20 11:23:02;;;;;;;14.63;9.97;;;3.50;99.90;;;;;;5035854;28;20210;-73
2022/11/20 11:25:36;;;;;;;10.50;8.93;;;3.50;99.90;;;;;;5031516;28;20208;-58
2022/11/20 11:28:20;;;;;;;13.33;9.03;;;3.60;99.90;;;;;;5026426;28;20406;-56
2022/11/20 11:30:48;;;;;;;12.83;7.73;;;3.60;99.90;;;;;;5026780;28;20221;-57
2022/11/20 11:33:25;;;;;;;10.20;8.03;;;3.60;99.90;;;;;;5029089;28;20217;-57
2022/11/20 11:35:53;;;;;;;8.83;7.13;;;3.50;99.90;;;;;;5028241;28;20281;-56
2022/11/20 11:38:36;;;;;;;8.63;7.63;;;3.40;99.90;;;;;;5031155;28;20222;-57
2022/11/20 11:41:05;;;;;;;9.60;7.40;;;3.30;99.90;;;;;;5028599;28;20649;-57
2022/11/20 11:46:33;;;;;;;13.40;8.10;;;3.10;99.90;;;;;;5024863;28;20290;-57
2022/11/20 11:49:05;;;;;;;12.07;8.17;;;3.00;99.90;;;;;;5029830;28;20199;-56
2022/11/20 11:51:56;;;;;;;11.37;7.73;;;2.80;99.90;;;;;;5028419;28;20758;-56
2022/11/20 11:54:30;;;;;;;13.60;8.93;;;2.70;99.90;;;;;;5027234;28;20574;-57
2022/11/20 11:57:01;;;;;;;11.60;8.77;;;2.60;99.90;;;;;;5029094;28;20240;-56
2022/11/20 11:59:39;;;;;;;12.30;9.17;;;2.60;99.90;;;;;;5029500;28;20554;-56
2022/11/20 12:02:25;;;;;;;16.87;10.27;;;2.50;99.90;;;;;;5030465;28;20206;-57
2022/11/20 12:04:57;;;;;;;12.20;8.97;;;2.50;99.90;;;;;;5028392;28;20674;-56
2022/11/20 12:07:39;;;;;;;8.73;7.20;;;2.60;99.90;;;;;;5030372;28;20218;-57
2022/11/20 12:10:20;;;;;;;10.60;9.50;;;2.60;99.90;;;;;;5027233;28;20236;-57
2022/11/20 12:12:51;;;;;;;11.33;7.17;;;2.70;99.90;;;;;;5025484;28;20253;-57
2022/11/20 12:15:31;;;;;;;11.77;8.40;;;2.70;99.90;;;;;;5026311;28;20257;-57
2022/11/20 12:17:56;;;;;;;11.20;8.13;;;2.90;99.90;;;;;;5028628;28;20849;-58
2022/11/20 12:20:27;;;;;;;10.00;7.70;;;2.90;99.90;;;;;;5028942;28;20341;-57
2022/11/20 12:23:27;;;;;;;12.33;8.60;;;2.90;99.90;;;;;;5026909;28;20198;-58
2022/11/20 12:25:55;;;;;;;9.07;7.67;;;2.90;99.90;;;;;;5015658;28;20211;-57
2022/11/20 12:28:36;;;;;;;9.53;7.90;;;3.00;99.90;;;;;;5026246;28;20214;-57
2022/11/20 12:31:24;;;;;;;9.50;7.37;;;3.00;99.90;;;;;;5024694;28;20680;-58
2022/11/20 12:33:50;;;;;;;11.90;6.97;;;3.10;99.90;;;;;;5027220;28;20535;-58
2022/11/20 12:36:33;;;;;;;8.23;6.80;;;3.00;99.90;;;;;;5025577;28;20194;-58
2022/11/20 12:39:24;;;;;;;9.40;6.50;;;2.90;99.90;;;;;;5027398;28;20289;-60
2022/11/20 12:45:11;;;;;;;8.03;7.23;;;2.90;99.90;;;;;;5027646;28;20277;-57
2022/11/20 12:48:01;;;;;;;8.87;6.97;;;2.90;99.90;;;;;;5028719;28;20209;-58
2022/11/20 12:50:38;;;;;;;8.23;6.83;;;3.10;99.90;;;;;;5027420;28;20206;-61
2022/11/20 12:53:26;;;;;;;11.13;7.60;;;3.40;99.90;;;;;;5027613;28;20210;-56
2022/11/20 12:56:20;;;;;;;16.27;8.77;;;4.10;99.90;;;;;;5027617;28;20226;-56
2022/11/20 12:58:45;;;;;;;8.83;5.93;;;4.50;99.90;;;;;;5027294;28;20245;-56
2022/11/20 13:01:43;;;;;;;8.50;6.57;;;4.50;99.90;;;;;;5027299;28;20294;-56
2022/11/20 13:04:31;;;;;;;7.03;6.20;;;4.30;99.90;;;;;;5025089;28;20677;-56
2022/11/20 13:06:56;;;;;;;9.00;6.70;;;4.30;99.90;;;;;;5027317;28;20249;-57